Ana Sayfa
METAR-TAF:

METAR-TAF

Havaalanları :

Midilli, Yunanistan

Enlem: 39-04N, Boylam: 026-36E, yükseklik: 3 m

Güncel hava durumu gözlemi

Rapor saat 12:20 UTC de 39 dakika önce yapıldı.
Rüzgar kuzey/kuzeybatıdan 10 kt, batı/kuzeybatı ve kuzey/kuzeydoğu arasında değişken
Sıcaklık 32°C
Nem 46%
Basınç 1008 hPa
Görüş mesafesi 10 km veya daha fazla
1500 m altında bulut yok ve kümülonimbus yok

METAR: LGMT 201220Z 34010KT 300V020 CAVOK 32/19 Q1008

Saat: 15:59 (12:59 UTC)

Tahmin

Rapor saat 11:00 UTC de 1 saat ve 59 dakika önce yapıldı.
Ayın 20'si saat 12 UTC'den ayın 20'si saat 21 UTC'ye kadar geçerli Tahmin
Rüzgar kuzeydan 12 kt
Görüş mesafesi 10 km veya daha fazla
2500 ft yükseklikte az bulutlu
Olasılık 30% :
Geçici
ayın 20'si saat 12 UTC'den ayın 20'si saat 18 UTC'ye kadar
Rüzgar kuzeydan 12 kt ve 22 kt'a kadar ani rüzgarlar

TAF: LGMT 201100Z 2012/2021 35012KT 9999 FEW025 PROB30 TEMPO 2012/2018 35012G22KT

4.000'den fazla havaalanı için hava durumu gözlemleri ve tahminleri (METAR ve TAF raporları).

Kullanılabilir istasyonlar harita üzerinde sarı ve kırmızı noktalarla gösterilir.

İstasyonun adını görmek için fareyi noktanın üzerinde gezdirin.

Sonrasında hava gözlem ve tahminlerini görmek için tıklayın.

Haritayı değiştirmek için: yaklaştırmak için siyah artı işaretli yeşil düğmeye ve uzaklaştırmak için de eksi işaretli düğmeye hızla tıklayın; bitişik haritalar için yeşil okları kullanın.


METAR-TAF: